Maytown, Washington
Current Conditions -  °F | °C
As of 6:54 AM on Wednesday 22 Oct 2014 (Local Time) from KOLM Reporting Station
Light Rain Light Rain  
Wind Chill: 55°   Ceiling: 2800
Heat Index: 55°   Visibility: 5mi
Dew Point: 53°   Wind: 15mph
Humidity: 93%   Direction: 190°S
Pressure: 29.69"   Gusts: NA
Location:  46.9755°N, 122.872°W
Report Text: KOLM 221354Z AUTO 19013KT 5SM -RA BR SCT011 BKN028 OVC045 13/12 A2969 RMK AO2 SLP053 P0019 T01280117
Loading
Personal Weather Stations






























Interactive Weather Map
Tropical Storm Tracking
New forecast layout! Learn more

10-Day Weather Forecast

Advertisements
Track Severe Weather on mobile